»·PEaware :: N581PA L45-KSNA

N581PA :: L45-KSNA

FLIGHT INFORMATION

Flight Status: Arrived
Operator: Privately registered:
United States
More flights under this callsign
Pilot: Raphael S. (13144)
Aircraft: BEECH AIRCRAFT BARON
(BE58)
More flights by this aircraft type
Origin: L45 Bakersfield Mun
United States
Destination: KSNA John Wayne-Orange Co
United States
More flights between these airports :: More routes between these airports
Route: +LHS V459 DARTS V186 BAYJY V363 POXKU V21 SLI
File this flight plan on PilotEdge
Remarks:
Altitude:
(Current/Filed)
9,000ft
Speed:
(Current/Filed)
200kts
Departed: 16-May-18 04:08 PM
Arrived: 16-May-18 04:55 PM
Distance/Time
Traveled:
114nm/0:47
Distance/Time
To Go:
Arrived

Flight Plot

Page will automatically refresh every two minutes.

Flight plan parsing failed; only flown route is shown


Map Options




Map Legend


Flown Route
Filed Route
Departure Airport
Arrival Airport
Navaid (VOR, NDB)
Fix

Horizontal Profiles

Position Reports

Time Latitude Longitude Heading Altitude Ground
Speed
16-May-18 15:53 35.325855 -118.997550 177 376ft 0kts
16-May-18 15:54 35.325855 -118.997550 177 376ft 0kts
16-May-18 15:55 35.325855 -118.997550 177 376ft 0kts
16-May-18 15:56 35.325855 -118.997550 177 376ft 0kts
16-May-18 15:57 35.325855 -118.997550 177 376ft 0kts
16-May-18 15:58 35.325849 -118.997551 189 376ft 0kts
16-May-18 15:59 35.325849 -118.997551 189 376ft 0kts
16-May-18 16:00 35.325849 -118.997551 189 376ft 0kts
16-May-18 16:01 35.325716 -118.997343 89 376ft 2kts
16-May-18 16:02 35.322567 -118.996886 178 376ft 14kts
16-May-18 16:03 35.321111 -118.996412 173 376ft 9kts
16-May-18 16:04 35.319306 -118.996287 47 376ft 0kts
16-May-18 16:05 35.319306 -118.996287 47 376ft 0kts
16-May-18 16:06 35.319306 -118.996287 47 376ft 0kts
16-May-18 16:07 35.319511 -118.995454 39 376ft 6kts
16-May-18 16:08 35.337887 -118.994238 0 1084ft 103kts
16-May-18 16:09 35.361846 -118.984679 84 2518ft 119kts
16-May-18 16:10 35.336462 -118.961824 159 3980ft 115kts
16-May-18 16:11 35.305160 -118.947567 175 5158ft 123kts
16-May-18 16:12 35.272259 -118.942861 177 6343ft 122kts
16-May-18 16:13 35.239628 -118.930529 166 7430ft 125kts
16-May-18 16:14 35.212636 -118.915279 162 8117ft 139kts
16-May-18 16:15 35.178256 -118.894142 161 9011ft 140kts
16-May-18 16:16 35.136464 -118.869848 155 9034ft 173kts
16-May-18 16:17 35.091238 -118.842677 158 8959ft 187kts
16-May-18 16:18 35.045125 -118.812537 158 8976ft 185kts
16-May-18 16:19 35.000144 -118.783184 159 8986ft 183kts
16-May-18 16:20 34.960565 -118.757366 158 8985ft 181kts
16-May-18 16:21 34.921857 -118.732142 158 8985ft 179kts
16-May-18 16:22 34.880752 -118.705420 157 9028ft 174kts
16-May-18 16:23 34.843602 -118.681291 158 9024ft 174kts
16-May-18 16:24 34.800317 -118.653230 157 9010ft 181kts
16-May-18 16:25 34.755127 -118.623932 157 8984ft 185kts
16-May-18 16:26 34.709882 -118.594617 157 8956ft 184kts
16-May-18 16:27 34.665082 -118.566703 159 8956ft 179kts
16-May-18 16:28 34.620674 -118.540631 158 8964ft 176kts
16-May-18 16:29 34.576680 -118.514839 158 8972ft 175kts
16-May-18 16:30 34.532609 -118.489028 158 8946ft 176kts
16-May-18 16:31 34.488732 -118.463365 157 8947ft 175kts
16-May-18 16:32 34.444919 -118.437769 157 8950ft 175kts
16-May-18 16:33 34.401205 -118.412287 157 8956ft 174kts
16-May-18 16:34 34.356629 -118.386390 157 8474ft 190kts
16-May-18 16:35 34.307967 -118.358102 156 7693ft 198kts
16-May-18 16:36 34.260376 -118.330397 157 7304ft 190kts
16-May-18 16:37 34.212387 -118.302552 157 6854ft 191kts
16-May-18 16:38 34.166903 -118.276095 158 7019ft 174kts
16-May-18 16:39 34.142224 -118.224176 115 7013ft 188kts
16-May-18 16:40 34.123930 -118.164959 115 7011ft 189kts
16-May-18 16:41 34.105369 -118.104309 114 6704ft 203kts
16-May-18 16:42 34.085414 -118.039131 114 6027ft 206kts
16-May-18 16:43 34.066004 -117.975900 114 5310ft 199kts
16-May-18 16:44 34.046631 -117.913023 113 5049ft 200kts
16-May-18 16:45 34.027244 -117.850203 113 5050ft 200kts
16-May-18 16:46 34.003838 -117.790688 158 5043ft 192kts
16-May-18 16:47 33.952068 -117.784587 182 5033ft 188kts
16-May-18 16:48 33.899968 -117.783450 182 5029ft 189kts
16-May-18 16:49 33.852879 -117.796072 242 5043ft 178kts
16-May-18 16:50 33.824757 -117.839896 179 4458ft 194kts
16-May-18 16:51 33.772620 -117.828624 171 4028ft 181kts
16-May-18 16:52 33.727438 -117.833184 201 2658ft 142kts
16-May-18 16:53 33.697382 -117.854687 213 508ft 97kts
16-May-18 16:54 33.676493 -117.868293 209 57ft 47kts
16-May-18 16:55 33.674653 -117.868605 159 57ft 0kts
16-May-18 16:56 33.674615 -117.868588 159 57ft 2kts
16-May-18 16:57 33.674340 -117.868480 146 57ft 0kts
16-May-18 16:58 33.674311 -117.868450 133 57ft 0kts
16-May-18 16:59 33.673659 -117.867072 118 57ft 12kts
16-May-18 17:00 33.672756 -117.866197 261 57ft 1kts
16-May-18 17:01 33.672745 -117.866225 239 57ft 0kts

Navigation Log

Ident Type
Flight plan parsing failed, navigation log unavailable